Weather at Sullivan Lake State Airport

Public forecast

Using degrees Fahrenheit for public forecast. Weather courtesy of forecast.io.

Closest aviation weather report (METAR) to Sullivan Lake State Airport

Report is more than 2 hours old.

Closest report is Castlegar/West Kootenay Regional Airport, 30.6 nm (56.6 km) NNW.

2024/06/19 04:00 (retrieved 2 hours ago)

CYCG 190400Z 33006KT 15SM FEW070 BKN200 13/08 A3001 RMK AC2CI4 LAST STFD OBS/NXT 191300Z SLP169

Closest aviation forecast (TAF) to Sullivan Lake State Airport

Closest forecast is Coeur D'Alene - Pappy Boyington Field, 66.7 nm (123.5 km) SSE.

2024/06/19 06:22 (retrieved 3 minutes ago)

TAF KCOE 190520Z 1906/2006 04005KT P6SM VCSH BKN070 FM190800 06006KT P6SM FEW070 BKN250 FM190900 04004KT P6SM BCFG FEW005 SCT080 FM191700 02007KT P6SM BKN060